sensor_id;sensor_type;location;lat;lon;timestamp;P1;durP1;ratioP1;P2;durP2;ratioP2
24277;SDS011;12394;42.692;23.314;2023-11-21T00:01:56;44.23;;;24.47;;
24277;SDS011;12394;42.692;23.314;2023-11-21T00:04:22;46.00;;;24.80;;
24277;SDS011;12394;42.692;23.314;2023-11-21T00:06:47;45.23;;;25.10;;
24277;SDS011;12394;42.692;23.314;2023-11-21T00:09:13;46.60;;;26.70;;
24277;SDS011;12394;42.692;23.314;2023-11-21T00:11:40;42.63;;;24.53;;
24277;SDS011;12394;42.692;23.314;2023-11-21T00:14:06;47.33;;;25.73;;
24277;SDS011;12394;42.692;23.314;2023-11-21T00:16:33;44.40;;;24.00;;
24277;SDS011;12394;42.692;23.314;2023-11-21T00:18:59;52.77;;;25.20;;
24277;SDS011;12394;42.692;23.314;2023-11-21T00:21:24;42.20;;;24.80;;
24277;SDS011;12394;42.692;23.314;2023-11-21T00:23:50;46.03;;;25.33;;
24277;SDS011;12394;42.692;23.314;2023-11-21T00:26:15;45.60;;;25.53;;
24277;SDS011;12394;42.692;23.314;2023-11-21T00:28:40;43.30;;;24.57;;
24277;SDS011;12394;42.692;23.314;2023-11-21T00:31:06;37.07;;;23.10;;
24277;SDS011;12394;42.692;23.314;2023-11-21T00:33:32;41.20;;;23.27;;
24277;SDS011;12394;42.692;23.314;2023-11-21T00:35:57;45.77;;;23.10;;
24277;SDS011;12394;42.692;23.314;2023-11-21T00:38:23;45.63;;;24.87;;
24277;SDS011;12394;42.692;23.314;2023-11-21T00:40:48;46.80;;;26.37;;
24277;SDS011;12394;42.692;23.314;2023-11-21T00:43:13;46.13;;;26.00;;
24277;SDS011;12394;42.692;23.314;2023-11-21T00:45:40;50.30;;;28.63;;
24277;SDS011;12394;42.692;23.314;2023-11-21T00:48:05;44.87;;;26.57;;
24277;SDS011;12394;42.692;23.314;2023-11-21T00:50:31;46.00;;;25.63;;
24277;SDS011;12394;42.692;23.314;2023-11-21T00:52:56;43.67;;;26.60;;
24277;SDS011;12394;42.692;23.314;2023-11-21T00:55:22;42.47;;;25.67;;
24277;SDS011;12394;42.692;23.314;2023-11-21T00:57:48;48.53;;;26.40;;
24277;SDS011;12394;42.692;23.314;2023-11-21T01:00:13;46.70;;;25.27;;
24277;SDS011;12394;42.692;23.314;2023-11-21T01:02:42;43.97;;;24.83;;
24277;SDS011;12394;42.692;23.314;2023-11-21T01:05:09;34.97;;;22.43;;
24277;SDS011;12394;42.692;23.314;2023-11-21T01:07:36;39.47;;;23.97;;
24277;SDS011;12394;42.692;23.314;2023-11-21T01:10:02;38.17;;;24.20;;
24277;SDS011;12394;42.692;23.314;2023-11-21T01:12:28;43.63;;;23.60;;
24277;SDS011;12394;42.692;23.314;2023-11-21T01:14:53;44.13;;;22.80;;
24277;SDS011;12394;42.692;23.314;2023-11-21T01:17:19;36.53;;;22.27;;
24277;SDS011;12394;42.692;23.314;2023-11-21T01:19:47;38.83;;;21.47;;
24277;SDS011;12394;42.692;23.314;2023-11-21T01:22:13;36.47;;;21.20;;
24277;SDS011;12394;42.692;23.314;2023-11-21T01:24:38;38.60;;;21.37;;
24277;SDS011;12394;42.692;23.314;2023-11-21T01:27:03;30.37;;;18.07;;
24277;SDS011;12394;42.692;23.314;2023-11-21T01:29:29;34.73;;;19.57;;
24277;SDS011;12394;42.692;23.314;2023-11-21T01:31:55;33.97;;;18.33;;
24277;SDS011;12394;42.692;23.314;2023-11-21T01:34:22;27.03;;;15.70;;
24277;SDS011;12394;42.692;23.314;2023-11-21T01:36:48;27.23;;;15.53;;
24277;SDS011;12394;42.692;23.314;2023-11-21T01:39:14;29.20;;;16.40;;
24277;SDS011;12394;42.692;23.314;2023-11-21T01:41:40;32.60;;;17.20;;
24277;SDS011;12394;42.692;23.314;2023-11-21T01:44:09;28.50;;;17.63;;
24277;SDS011;12394;42.692;23.314;2023-11-21T01:46:35;34.90;;;17.53;;
24277;SDS011;12394;42.692;23.314;2023-11-21T01:49:00;31.57;;;17.73;;
24277;SDS011;12394;42.692;23.314;2023-11-21T01:51:26;25.17;;;16.67;;
24277;SDS011;12394;42.692;23.314;2023-11-21T01:53:52;29.40;;;17.83;;
24277;SDS011;12394;42.692;23.314;2023-11-21T01:56:17;28.00;;;18.90;;
24277;SDS011;12394;42.692;23.314;2023-11-21T01:58:43;38.27;;;20.97;;
24277;SDS011;12394;42.692;23.314;2023-11-21T02:01:11;41.63;;;25.10;;
24277;SDS011;12394;42.692;23.314;2023-11-21T02:03:37;37.70;;;24.17;;
24277;SDS011;12394;42.692;23.314;2023-11-21T02:06:02;41.93;;;23.10;;
24277;SDS011;12394;42.692;23.314;2023-11-21T02:08:28;45.07;;;23.87;;
24277;SDS011;12394;42.692;23.314;2023-11-21T02:10:53;39.30;;;22.97;;
24277;SDS011;12394;42.692;23.314;2023-11-21T02:13:19;43.90;;;22.50;;
24277;SDS011;12394;42.692;23.314;2023-11-21T02:15:44;41.17;;;22.77;;
24277;SDS011;12394;42.692;23.314;2023-11-21T02:18:10;34.70;;;21.23;;
24277;SDS011;12394;42.692;23.314;2023-11-21T02:20:36;33.53;;;19.87;;
24277;SDS011;12394;42.692;23.314;2023-11-21T02:23:04;35.97;;;19.93;;
24277;SDS011;12394;42.692;23.314;2023-11-21T02:25:30;34.20;;;20.80;;
24277;SDS011;12394;42.692;23.314;2023-11-21T02:27:58;37.23;;;20.27;;
24277;SDS011;12394;42.692;23.314;2023-11-21T02:30:27;32.47;;;18.90;;
24277;SDS011;12394;42.692;23.314;2023-11-21T02:32:53;38.37;;;21.53;;
24277;SDS011;12394;42.692;23.314;2023-11-21T02:35:19;37.03;;;21.43;;
24277;SDS011;12394;42.692;23.314;2023-11-21T02:37:46;31.93;;;20.17;;
24277;SDS011;12394;42.692;23.314;2023-11-21T02:40:12;35.47;;;20.20;;
24277;SDS011;12394;42.692;23.314;2023-11-21T02:42:39;41.07;;;21.23;;
24277;SDS011;12394;42.692;23.314;2023-11-21T02:45:06;37.07;;;21.10;;
24277;SDS011;12394;42.692;23.314;2023-11-21T02:47:32;40.93;;;22.73;;
24277;SDS011;12394;42.692;23.314;2023-11-21T02:49:58;37.37;;;22.13;;
24277;SDS011;12394;42.692;23.314;2023-11-21T02:52:24;52.10;;;29.60;;
24277;SDS011;12394;42.692;23.314;2023-11-21T02:54:50;57.90;;;31.60;;
24277;SDS011;12394;42.692;23.314;2023-11-21T02:57:16;54.40;;;29.50;;
24277;SDS011;12394;42.692;23.314;2023-11-21T02:59:41;47.00;;;28.77;;
24277;SDS011;12394;42.692;23.314;2023-11-21T03:02:07;45.63;;;24.97;;
24277;SDS011;12394;42.692;23.314;2023-11-21T03:04:35;38.87;;;22.23;;
24277;SDS011;12394;42.692;23.314;2023-11-21T03:07:01;41.73;;;23.27;;
24277;SDS011;12394;42.692;23.314;2023-11-21T03:09:26;41.83;;;23.57;;
24277;SDS011;12394;42.692;23.314;2023-11-21T03:11:52;37.97;;;21.10;;
24277;SDS011;12394;42.692;23.314;2023-11-21T03:14:18;47.47;;;23.20;;
24277;SDS011;12394;42.692;23.314;2023-11-21T03:16:43;42.57;;;22.07;;
24277;SDS011;12394;42.692;23.314;2023-11-21T03:19:10;42.77;;;22.57;;
24277;SDS011;12394;42.692;23.314;2023-11-21T03:21:36;36.90;;;20.80;;
24277;SDS011;12394;42.692;23.314;2023-11-21T03:24:02;35.20;;;21.70;;
24277;SDS011;12394;42.692;23.314;2023-11-21T03:26:28;31.87;;;20.93;;
24277;SDS011;12394;42.692;23.314;2023-11-21T03:28:54;37.43;;;20.50;;
24277;SDS011;12394;42.692;23.314;2023-11-21T03:31:20;36.70;;;20.87;;
24277;SDS011;12394;42.692;23.314;2023-11-21T03:33:46;35.93;;;20.70;;
24277;SDS011;12394;42.692;23.314;2023-11-21T03:36:12;32.97;;;20.27;;
24277;SDS011;12394;42.692;23.314;2023-11-21T03:38:37;34.47;;;20.30;;
24277;SDS011;12394;42.692;23.314;2023-11-21T03:41:03;33.67;;;18.93;;
24277;SDS011;12394;42.692;23.314;2023-11-21T03:43:30;26.97;;;16.93;;
24277;SDS011;12394;42.692;23.314;2023-11-21T03:45:55;34.20;;;17.40;;
24277;SDS011;12394;42.692;23.314;2023-11-21T03:48:21;33.90;;;18.20;;
24277;SDS011;12394;42.692;23.314;2023-11-21T03:50:46;27.03;;;16.93;;
24277;SDS011;12394;42.692;23.314;2023-11-21T03:53:12;31.90;;;16.50;;
24277;SDS011;12394;42.692;23.314;2023-11-21T03:55:37;29.00;;;16.93;;
24277;SDS011;12394;42.692;23.314;2023-11-21T03:58:03;26.87;;;16.80;;
24277;SDS011;12394;42.692;23.314;2023-11-21T04:00:28;22.13;;;14.13;;
24277;SDS011;12394;42.692;23.314;2023-11-21T04:02:54;24.10;;;13.23;;
24277;SDS011;12394;42.692;23.314;2023-11-21T04:05:20;22.83;;;14.77;;
24277;SDS011;12394;42.692;23.314;2023-11-21T04:07:47;22.63;;;13.17;;
24277;SDS011;12394;42.692;23.314;2023-11-21T04:10:14;17.90;;;11.37;;
24277;SDS011;12394;42.692;23.314;2023-11-21T04:12:40;20.90;;;12.00;;
24277;SDS011;12394;42.692;23.314;2023-11-21T04:15:08;19.27;;;12.80;;
24277;SDS011;12394;42.692;23.314;2023-11-21T04:17:34;19.97;;;12.70;;
24277;SDS011;12394;42.692;23.314;2023-11-21T04:20:00;20.10;;;12.97;;
24277;SDS011;12394;42.692;23.314;2023-11-21T04:22:25;28.93;;;14.07;;
24277;SDS011;12394;42.692;23.314;2023-11-21T04:24:51;28.03;;;14.87;;
24277;SDS011;12394;42.692;23.314;2023-11-21T04:27:16;29.97;;;16.10;;
24277;SDS011;12394;42.692;23.314;2023-11-21T04:29:43;35.83;;;16.93;;
24277;SDS011;12394;42.692;23.314;2023-11-21T04:32:09;30.30;;;17.37;;
24277;SDS011;12394;42.692;23.314;2023-11-21T04:34:35;27.77;;;17.50;;
24277;SDS011;12394;42.692;23.314;2023-11-21T04:37:00;32.53;;;17.10;;
24277;SDS011;12394;42.692;23.314;2023-11-21T04:39:26;26.27;;;17.07;;
24277;SDS011;12394;42.692;23.314;2023-11-21T04:41:52;30.53;;;18.87;;
24277;SDS011;12394;42.692;23.314;2023-11-21T04:44:17;34.43;;;17.87;;
24277;SDS011;12394;42.692;23.314;2023-11-21T04:46:42;34.60;;;19.30;;
24277;SDS011;12394;42.692;23.314;2023-11-21T04:49:08;39.50;;;19.67;;
24277;SDS011;12394;42.692;23.314;2023-11-21T04:51:34;32.17;;;16.27;;
24277;SDS011;12394;42.692;23.314;2023-11-21T04:53:59;30.80;;;17.77;;
24277;SDS011;12394;42.692;23.314;2023-11-21T04:56:25;28.83;;;16.30;;
24277;SDS011;12394;42.692;23.314;2023-11-21T04:58:50;27.97;;;15.87;;
24277;SDS011;12394;42.692;23.314;2023-11-21T05:01:16;29.70;;;15.70;;
24277;SDS011;12394;42.692;23.314;2023-11-21T05:03:42;30.80;;;16.30;;
24277;SDS011;12394;42.692;23.314;2023-11-21T05:06:11;25.07;;;15.60;;
24277;SDS011;12394;42.692;23.314;2023-11-21T05:08:36;28.03;;;16.77;;
24277;SDS011;12394;42.692;23.314;2023-11-21T05:11:03;33.07;;;19.13;;
24277;SDS011;12394;42.692;23.314;2023-11-21T05:13:28;31.27;;;18.37;;
24277;SDS011;12394;42.692;23.314;2023-11-21T05:15:57;25.57;;;16.80;;
24277;SDS011;12394;42.692;23.314;2023-11-21T05:18:22;31.30;;;17.13;;
24277;SDS011;12394;42.692;23.314;2023-11-21T05:20:48;37.77;;;17.43;;
24277;SDS011;12394;42.692;23.314;2023-11-21T05:23:13;29.67;;;17.50;;
24277;SDS011;12394;42.692;23.314;2023-11-21T05:25:39;31.10;;;16.10;;
24277;SDS011;12394;42.692;23.314;2023-11-21T05:28:04;31.87;;;17.23;;
24277;SDS011;12394;42.692;23.314;2023-11-21T05:30:30;32.57;;;17.63;;
24277;SDS011;12394;42.692;23.314;2023-11-21T05:32:55;30.73;;;17.63;;
24277;SDS011;12394;42.692;23.314;2023-11-21T05:35:21;39.00;;;18.93;;
24277;SDS011;12394;42.692;23.314;2023-11-21T05:37:46;35.37;;;18.17;;
24277;SDS011;12394;42.692;23.314;2023-11-21T05:40:12;33.27;;;17.73;;
24277;SDS011;12394;42.692;23.314;2023-11-21T05:42:38;32.17;;;18.17;;
24277;SDS011;12394;42.692;23.314;2023-11-21T05:45:05;29.27;;;17.70;;
24277;SDS011;12394;42.692;23.314;2023-11-21T05:47:44;28.83;;;15.90;;
24277;SDS011;12394;42.692;23.314;2023-11-21T05:50:14;32.60;;;18.50;;
24277;SDS011;12394;42.692;23.314;2023-11-21T05:52:41;26.80;;;16.07;;
24277;SDS011;12394;42.692;23.314;2023-11-21T05:55:08;30.73;;;17.70;;
24277;SDS011;12394;42.692;23.314;2023-11-21T05:57:34;40.93;;;18.63;;
24277;SDS011;12394;42.692;23.314;2023-11-21T06:00:10;38.40;;;20.30;;
24277;SDS011;12394;42.692;23.314;2023-11-21T06:02:43;40.43;;;18.27;;
24277;SDS011;12394;42.692;23.314;2023-11-21T06:05:10;30.50;;;18.00;;
24277;SDS011;12394;42.692;23.314;2023-11-21T06:07:35;29.17;;;18.17;;
24277;SDS011;12394;42.692;23.314;2023-11-21T06:10:03;37.13;;;20.37;;
24277;SDS011;12394;42.692;23.314;2023-11-21T06:12:31;40.70;;;20.83;;
24277;SDS011;12394;42.692;23.314;2023-11-21T06:15:00;40.17;;;20.07;;
24277;SDS011;12394;42.692;23.314;2023-11-21T06:17:29;35.03;;;18.87;;
24277;SDS011;12394;42.692;23.314;2023-11-21T06:19:54;32.03;;;17.17;;
24277;SDS011;12394;42.692;23.314;2023-11-21T06:22:20;27.70;;;17.43;;
24277;SDS011;12394;42.692;23.314;2023-11-21T06:24:45;32.27;;;19.50;;
24277;SDS011;12394;42.692;23.314;2023-11-21T06:27:11;28.57;;;16.03;;
24277;SDS011;12394;42.692;23.314;2023-11-21T06:29:36;26.87;;;15.93;;
24277;SDS011;12394;42.692;23.314;2023-11-21T06:32:02;25.07;;;16.30;;
24277;SDS011;12394;42.692;23.314;2023-11-21T06:34:30;35.90;;;18.43;;
24277;SDS011;12394;42.692;23.314;2023-11-21T06:36:55;27.87;;;17.40;;
24277;SDS011;12394;42.692;23.314;2023-11-21T06:39:21;41.80;;;17.67;;
24277;SDS011;12394;42.692;23.314;2023-11-21T06:41:48;32.53;;;18.00;;
24277;SDS011;12394;42.692;23.314;2023-11-21T06:44:15;34.53;;;20.57;;
24277;SDS011;12394;42.692;23.314;2023-11-21T06:46:40;29.33;;;19.10;;
24277;SDS011;12394;42.692;23.314;2023-11-21T06:49:07;31.43;;;18.90;;
24277;SDS011;12394;42.692;23.314;2023-11-21T06:51:33;33.83;;;19.47;;
24277;SDS011;12394;42.692;23.314;2023-11-21T06:53:58;34.03;;;20.60;;
24277;SDS011;12394;42.692;23.314;2023-11-21T06:56:24;32.33;;;19.67;;
24277;SDS011;12394;42.692;23.314;2023-11-21T06:58:49;35.43;;;19.30;;
24277;SDS011;12394;42.692;23.314;2023-11-21T07:01:18;41.97;;;22.17;;
24277;SDS011;12394;42.692;23.314;2023-11-21T07:03:45;35.90;;;21.00;;
24277;SDS011;12394;42.692;23.314;2023-11-21T07:06:10;36.50;;;22.57;;
24277;SDS011;12394;42.692;23.314;2023-11-21T07:08:36;36.83;;;21.50;;
24277;SDS011;12394;42.692;23.314;2023-11-21T07:11:03;37.00;;;22.93;;
24277;SDS011;12394;42.692;23.314;2023-11-21T07:13:29;37.17;;;23.67;;
24277;SDS011;12394;42.692;23.314;2023-11-21T07:15:55;43.30;;;23.47;;
24277;SDS011;12394;42.692;23.314;2023-11-21T07:18:21;33.70;;;21.17;;
24277;SDS011;12394;42.692;23.314;2023-11-21T07:20:46;39.60;;;21.53;;
24277;SDS011;12394;42.692;23.314;2023-11-21T07:23:11;34.13;;;20.93;;
24277;SDS011;12394;42.692;23.314;2023-11-21T07:25:37;40.17;;;22.10;;
24277;SDS011;12394;42.692;23.314;2023-11-21T07:28:02;36.97;;;22.43;;
24277;SDS011;12394;42.692;23.314;2023-11-21T07:30:30;35.00;;;22.40;;
24277;SDS011;12394;42.692;23.314;2023-11-21T07:32:55;38.93;;;22.33;;
24277;SDS011;12394;42.692;23.314;2023-11-21T07:35:21;46.33;;;21.30;;
24277;SDS011;12394;42.692;23.314;2023-11-21T07:37:46;40.77;;;22.27;;
24277;SDS011;12394;42.692;23.314;2023-11-21T07:40:13;35.87;;;21.43;;
24277;SDS011;12394;42.692;23.314;2023-11-21T07:42:39;28.90;;;15.13;;
24277;SDS011;12394;42.692;23.314;2023-11-21T07:45:05;34.37;;;18.10;;
24277;SDS011;12394;42.692;23.314;2023-11-21T07:47:32;28.60;;;16.97;;
24277;SDS011;12394;42.692;23.314;2023-11-21T07:49:59;30.40;;;18.07;;
24277;SDS011;12394;42.692;23.314;2023-11-21T07:52:28;29.87;;;16.63;;
24277;SDS011;12394;42.692;23.314;2023-11-21T07:54:53;32.87;;;20.07;;
24277;SDS011;12394;42.692;23.314;2023-11-21T07:57:18;33.17;;;20.80;;
24277;SDS011;12394;42.692;23.314;2023-11-21T07:59:44;36.90;;;21.70;;
24277;SDS011;12394;42.692;23.314;2023-11-21T08:02:09;28.93;;;17.63;;
24277;SDS011;12394;42.692;23.314;2023-11-21T08:04:35;29.13;;;17.33;;
24277;SDS011;12394;42.692;23.314;2023-11-21T08:07:00;26.63;;;14.80;;
24277;SDS011;12394;42.692;23.314;2023-11-21T08:09:27;17.97;;;12.13;;
24277;SDS011;12394;42.692;23.314;2023-11-21T08:11:52;22.23;;;12.67;;
24277;SDS011;12394;42.692;23.314;2023-11-21T08:14:18;47.73;;;21.37;;
24277;SDS011;12394;42.692;23.314;2023-11-21T08:16:44;39.47;;;21.97;;
24277;SDS011;12394;42.692;23.314;2023-11-21T08:19:09;34.17;;;18.27;;
24277;SDS011;12394;42.692;23.314;2023-11-21T08:21:36;28.93;;;14.57;;
24277;SDS011;12394;42.692;23.314;2023-11-21T08:24:05;32.27;;;18.93;;
24277;SDS011;12394;42.692;23.314;2023-11-21T08:26:35;33.23;;;19.60;;
24277;SDS011;12394;42.692;23.314;2023-11-21T08:29:01;23.50;;;12.73;;
24277;SDS011;12394;42.692;23.314;2023-11-21T08:31:26;25.67;;;14.27;;
24277;SDS011;12394;42.692;23.314;2023-11-21T08:33:52;24.43;;;13.13;;
24277;SDS011;12394;42.692;23.314;2023-11-21T08:36:20;33.67;;;19.60;;
24277;SDS011;12394;42.692;23.314;2023-11-21T08:38:50;38.73;;;20.87;;
24277;SDS011;12394;42.692;23.314;2023-11-21T08:41:19;46.27;;;23.17;;
24277;SDS011;12394;42.692;23.314;2023-11-21T08:43:49;43.47;;;25.90;;
24277;SDS011;12394;42.692;23.314;2023-11-21T08:46:18;42.10;;;25.13;;
24277;SDS011;12394;42.692;23.314;2023-11-21T08:48:46;46.17;;;24.73;;
24277;SDS011;12394;42.692;23.314;2023-11-21T08:51:11;42.17;;;26.77;;
24277;SDS011;12394;42.692;23.314;2023-11-21T08:53:38;43.77;;;25.13;;
24277;SDS011;12394;42.692;23.314;2023-11-21T08:56:03;58.13;;;36.73;;
24277;SDS011;12394;42.692;23.314;2023-11-21T08:58:32;37.70;;;24.30;;
24277;SDS011;12394;42.692;23.314;2023-11-21T09:00:58;45.13;;;25.83;;
24277;SDS011;12394;42.692;23.314;2023-11-21T09:03:24;38.67;;;24.40;;
24277;SDS011;12394;42.692;23.314;2023-11-21T09:05:50;46.10;;;26.10;;
24277;SDS011;12394;42.692;23.314;2023-11-21T09:08:16;45.72;;;26.08;;
24277;SDS011;12394;42.692;23.314;2023-11-21T09:10:42;52.37;;;27.00;;
24277;SDS011;12394;42.692;23.314;2023-11-21T09:13:12;39.40;;;24.97;;
24277;SDS011;12394;42.692;23.314;2023-11-21T09:15:59;45.57;;;26.27;;
24277;SDS011;12394;42.692;23.314;2023-11-21T09:18:25;47.60;;;28.23;;
24277;SDS011;12394;42.692;23.314;2023-11-21T09:20:51;40.97;;;25.83;;
24277;SDS011;12394;42.692;23.314;2023-11-21T09:23:17;39.73;;;24.90;;
24277;SDS011;12394;42.692;23.314;2023-11-21T09:25:43;46.63;;;25.10;;
24277;SDS011;12394;42.692;23.314;2023-11-21T09:28:11;38.70;;;23.20;;
24277;SDS011;12394;42.692;23.314;2023-11-21T09:30:38;33.77;;;21.83;;
24277;SDS011;12394;42.692;23.314;2023-11-21T09:33:04;48.33;;;22.70;;
24277;SDS011;12394;42.692;23.314;2023-11-21T09:35:33;40.23;;;23.47;;
24277;SDS011;12394;42.692;23.314;2023-11-21T09:37:59;33.43;;;19.83;;
24277;SDS011;12394;42.692;23.314;2023-11-21T09:40:27;40.07;;;19.37;;
24277;SDS011;12394;42.692;23.314;2023-11-21T09:42:57;37.80;;;21.43;;
24277;SDS011;12394;42.692;23.314;2023-11-21T09:45:27;36.73;;;22.63;;
24277;SDS011;12394;42.692;23.314;2023-11-21T09:47:54;41.87;;;24.10;;
24277;SDS011;12394;42.692;23.314;2023-11-21T09:50:21;47.10;;;25.97;;
24277;SDS011;12394;42.692;23.314;2023-11-21T09:52:54;45.10;;;25.70;;
24277;SDS011;12394;42.692;23.314;2023-11-21T09:55:26;47.90;;;25.33;;
24277;SDS011;12394;42.692;23.314;2023-11-21T09:57:54;53.13;;;24.93;;
24277;SDS011;12394;42.692;23.314;2023-11-21T10:00:22;57.33;;;26.63;;
24277;SDS011;12394;42.692;23.314;2023-11-21T10:02:52;46.90;;;26.00;;
24277;SDS011;12394;42.692;23.314;2023-11-21T10:05:19;42.27;;;26.53;;
24277;SDS011;12394;42.692;23.314;2023-11-21T10:07:47;47.23;;;26.37;;
24277;SDS011;12394;42.692;23.314;2023-11-21T10:10:14;48.17;;;26.33;;
24277;SDS011;12394;42.692;23.314;2023-11-21T10:12:48;41.23;;;25.10;;
24277;SDS011;12394;42.692;23.314;2023-11-21T10:15:23;39.40;;;23.13;;
24277;SDS011;12394;42.692;23.314;2023-11-21T10:17:52;35.43;;;20.80;;
24277;SDS011;12394;42.692;23.314;2023-11-21T10:20:20;34.47;;;18.73;;
24277;SDS011;12394;42.692;23.314;2023-11-21T10:22:45;31.77;;;19.57;;
24277;SDS011;12394;42.692;23.314;2023-11-21T10:25:11;56.47;;;20.03;;
24277;SDS011;12394;42.692;23.314;2023-11-21T10:27:41;29.03;;;19.33;;
24277;SDS011;12394;42.692;23.314;2023-11-21T10:30:08;35.77;;;21.63;;
24277;SDS011;12394;42.692;23.314;2023-11-21T10:32:41;42.53;;;23.10;;
24277;SDS011;12394;42.692;23.314;2023-11-21T10:35:08;36.70;;;22.73;;
24277;SDS011;12394;42.692;23.314;2023-11-21T10:37:37;41.03;;;25.63;;
24277;SDS011;12394;42.692;23.314;2023-11-21T10:40:09;44.67;;;29.00;;
24277;SDS011;12394;42.692;23.314;2023-11-21T10:42:39;45.60;;;27.20;;
24277;SDS011;12394;42.692;23.314;2023-11-21T10:45:06;48.20;;;28.33;;
24277;SDS011;12394;42.692;23.314;2023-11-21T10:47:46;48.50;;;27.00;;
24277;SDS011;12394;42.692;23.314;2023-11-21T10:50:11;47.97;;;27.27;;
24277;SDS011;12394;42.692;23.314;2023-11-21T10:52:37;38.50;;;25.50;;
24277;SDS011;12394;42.692;23.314;2023-11-21T10:55:20;40.43;;;24.20;;
24277;SDS011;12394;42.692;23.314;2023-11-21T10:57:48;38.53;;;22.73;;
24277;SDS011;12394;42.692;23.314;2023-11-21T11:00:16;38.47;;;20.00;;
24277;SDS011;12394;42.692;23.314;2023-11-21T11:02:45;35.57;;;19.30;;
24277;SDS011;12394;42.692;23.314;2023-11-21T11:05:15;30.00;;;13.33;;
24277;SDS011;12394;42.692;23.314;2023-11-21T11:07:44;25.40;;;15.40;;
24277;SDS011;12394;42.692;23.314;2023-11-21T11:10:17;38.10;;;17.83;;
24277;SDS011;12394;42.692;23.314;2023-11-21T11:12:46;37.10;;;18.23;;
24277;SDS011;12394;42.692;23.314;2023-11-21T11:15:12;32.27;;;16.57;;
24277;SDS011;12394;42.692;23.314;2023-11-21T11:17:39;31.93;;;18.70;;
24277;SDS011;12394;42.692;23.314;2023-11-21T11:20:07;31.20;;;17.37;;
24277;SDS011;12394;42.692;23.314;2023-11-21T11:22:44;28.63;;;18.13;;
24277;SDS011;12394;42.692;23.314;2023-11-21T11:25:27;25.57;;;17.20;;
24277;SDS011;12394;42.692;23.314;2023-11-21T11:28:04;30.27;;;17.23;;
24277;SDS011;12394;42.692;23.314;2023-11-21T11:30:41;26.73;;;16.77;;
24277;SDS011;12394;42.692;23.314;2023-11-21T11:42:01;44.17;;;20.90;;
24277;SDS011;12394;42.692;23.314;2023-11-21T11:47:15;32.63;;;19.03;;
24277;SDS011;12394;42.692;23.314;2023-11-21T11:55:01;32.50;;;17.50;;
24277;SDS011;12394;42.692;23.314;2023-11-21T11:57:29;31.87;;;19.03;;
24277;SDS011;12394;42.692;23.314;2023-11-21T12:00:16;27.27;;;16.87;;
24277;SDS011;12394;42.692;23.314;2023-11-21T12:02:46;27.63;;;17.63;;
24277;SDS011;12394;42.692;23.314;2023-11-21T12:05:13;39.53;;;18.47;;
24277;SDS011;12394;42.692;23.314;2023-11-21T12:07:44;31.00;;;17.90;;
24277;SDS011;12394;42.692;23.314;2023-11-21T12:10:14;27.80;;;16.43;;
24277;SDS011;12394;42.692;23.314;2023-11-21T12:12:50;36.37;;;19.63;;
24277;SDS011;12394;42.692;23.314;2023-11-21T12:15:19;36.80;;;20.87;;
24277;SDS011;12394;42.692;23.314;2023-11-21T12:17:46;44.03;;;21.30;;
24277;SDS011;12394;42.692;23.314;2023-11-21T12:20:13;36.80;;;21.83;;
24277;SDS011;12394;42.692;23.314;2023-11-21T12:22:48;36.30;;;22.83;;
24277;SDS011;12394;42.692;23.314;2023-11-21T12:25:18;38.30;;;24.23;;
24277;SDS011;12394;42.692;23.314;2023-11-21T12:27:50;36.50;;;23.57;;
24277;SDS011;12394;42.692;23.314;2023-11-21T12:30:19;43.50;;;23.17;;
24277;SDS011;12394;42.692;23.314;2023-11-21T12:32:50;41.30;;;23.33;;
24277;SDS011;12394;42.692;23.314;2023-11-21T12:35:17;40.00;;;22.17;;
24277;SDS011;12394;42.692;23.314;2023-11-21T12:37:47;35.53;;;21.00;;
24277;SDS011;12394;42.692;23.314;2023-11-21T12:40:13;29.93;;;20.43;;
24277;SDS011;12394;42.692;23.314;2023-11-21T12:42:43;42.40;;;21.73;;
24277;SDS011;12394;42.692;23.314;2023-11-21T12:47:47;34.97;;;21.60;;
24277;SDS011;12394;42.692;23.314;2023-11-21T12:50:21;32.17;;;20.77;;
24277;SDS011;12394;42.692;23.314;2023-11-21T12:52:50;32.87;;;21.27;;
24277;SDS011;12394;42.692;23.314;2023-11-21T12:55:36;37.97;;;22.43;;
24277;SDS011;12394;42.692;23.314;2023-11-21T12:58:04;31.63;;;21.53;;
24277;SDS011;12394;42.692;23.314;2023-11-21T13:00:38;36.27;;;22.53;;
24277;SDS011;12394;42.692;23.314;2023-11-21T13:03:13;30.23;;;20.70;;
24277;SDS011;12394;42.692;23.314;2023-11-21T13:05:48;22.67;;;14.60;;
24277;SDS011;12394;42.692;23.314;2023-11-21T13:08:37;23.83;;;14.03;;
24277;SDS011;12394;42.692;23.314;2023-11-21T13:11:23;21.57;;;15.77;;
24277;SDS011;12394;42.692;23.314;2023-11-21T13:13:51;24.73;;;15.80;;
24277;SDS011;12394;42.692;23.314;2023-11-21T13:16:18;28.30;;;16.13;;
24277;SDS011;12394;42.692;23.314;2023-11-21T13:18:45;26.10;;;16.60;;
24277;SDS011;12394;42.692;23.314;2023-11-21T13:21:11;26.53;;;14.80;;
24277;SDS011;12394;42.692;23.314;2023-11-21T13:23:40;29.47;;;21.73;;
24277;SDS011;12394;42.692;23.314;2023-11-21T13:26:07;28.90;;;16.20;;
24277;SDS011;12394;42.692;23.314;2023-11-21T13:28:35;22.40;;;16.30;;
24277;SDS011;12394;42.692;23.314;2023-11-21T13:31:03;21.83;;;14.87;;
24277;SDS011;12394;42.692;23.314;2023-11-21T13:33:46;24.70;;;14.87;;
24277;SDS011;12394;42.692;23.314;2023-11-21T13:36:20;26.07;;;15.30;;
24277;SDS011;12394;42.692;23.314;2023-11-21T13:38:50;17.90;;;13.33;;
24277;SDS011;12394;42.692;23.314;2023-11-21T13:41:18;25.33;;;14.00;;
24277;SDS011;12394;42.692;23.314;2023-11-21T13:43:44;21.43;;;13.60;;
24277;SDS011;12394;42.692;23.314;2023-11-21T13:46:17;23.73;;;13.77;;
24277;SDS011;12394;42.692;23.314;2023-11-21T13:48:47;26.53;;;15.57;;
24277;SDS011;12394;42.692;23.314;2023-11-21T13:51:20;27.90;;;17.17;;
24277;SDS011;12394;42.692;23.314;2023-11-21T13:53:55;28.93;;;18.57;;
24277;SDS011;12394;42.692;23.314;2023-11-21T13:56:21;30.23;;;18.17;;
24277;SDS011;12394;42.692;23.314;2023-11-21T13:58:51;31.63;;;20.40;;
24277;SDS011;12394;42.692;23.314;2023-11-21T14:01:22;27.13;;;19.37;;
24277;SDS011;12394;42.692;23.314;2023-11-21T14:04:03;33.73;;;22.90;;
24277;SDS011;12394;42.692;23.314;2023-11-21T14:06:38;33.13;;;21.67;;
24277;SDS011;12394;42.692;23.314;2023-11-21T14:09:13;39.07;;;22.43;;
24277;SDS011;12394;42.692;23.314;2023-11-21T14:11:48;51.07;;;26.47;;
24277;SDS011;12394;42.692;23.314;2023-11-21T14:14:15;38.33;;;22.23;;
24277;SDS011;12394;42.692;23.314;2023-11-21T14:16:41;44.93;;;23.83;;
24277;SDS011;12394;42.692;23.314;2023-11-21T14:19:07;37.67;;;25.77;;
24277;SDS011;12394;42.692;23.314;2023-11-21T14:21:40;39.07;;;23.40;;
24277;SDS011;12394;42.692;23.314;2023-11-21T14:24:09;37.30;;;23.27;;
24277;SDS011;12394;42.692;23.314;2023-11-21T14:26:37;34.70;;;22.40;;
24277;SDS011;12394;42.692;23.314;2023-11-21T14:29:07;42.77;;;23.13;;
24277;SDS011;12394;42.692;23.314;2023-11-21T14:31:33;34.87;;;23.90;;